createdAt,value
2018-05-09T00:00:21.349Z,14.92
2018-05-09T00:02:48.829Z,14.88
2018-05-09T00:05:16.292Z,14.76
2018-05-09T00:07:43.751Z,14.79
2018-05-09T00:10:11.236Z,14.85
2018-05-09T00:12:38.704Z,14.70
2018-05-09T00:15:06.191Z,14.68
2018-05-09T00:17:33.649Z,14.61
2018-05-09T00:20:01.130Z,14.48
2018-05-09T00:22:28.599Z,14.33
2018-05-09T00:24:57.552Z,14.31
2018-05-09T00:27:25.169Z,14.16
2018-05-09T00:29:52.668Z,14.22
2018-05-09T00:32:20.169Z,14.14
2018-05-09T00:34:47.647Z,14.26
2018-05-09T00:37:15.120Z,14.31
2018-05-09T00:39:42.619Z,14.40
2018-05-09T00:42:10.092Z,14.27
2018-05-09T00:44:37.589Z,14.22
2018-05-09T00:47:05.066Z,14.23
2018-05-09T00:49:32.932Z,14.26
2018-05-09T00:52:00.426Z,14.26
2018-05-09T00:54:34.680Z,14.05
2018-05-09T00:57:02.169Z,14.06
2018-05-09T00:59:29.637Z,14.05
2018-05-09T01:01:57.107Z,14.09
2018-05-09T01:04:24.599Z,14.03
2018-05-09T01:06:52.076Z,13.97
2018-05-09T01:09:19.580Z,14.02
2018-05-09T01:11:47.048Z,14.00
2018-05-09T01:14:14.520Z,14.02
2018-05-09T01:16:42.016Z,14.04
2018-05-09T01:19:09.479Z,14.08
2018-05-09T01:21:36.970Z,14.04
2018-05-09T01:24:05.027Z,14.10
2018-05-09T01:26:32.501Z,14.09
2018-05-09T01:29:00.005Z,14.08
2018-05-09T01:31:27.472Z,14.01
2018-05-09T01:33:54.961Z,14.02
2018-05-09T01:36:22.428Z,13.97
2018-05-09T01:38:49.895Z,13.92
2018-05-09T01:41:17.379Z,13.85
2018-05-09T01:43:44.853Z,13.86
2018-05-09T01:46:12.652Z,13.89
2018-05-09T01:48:40.123Z,13.83
2018-05-09T01:51:07.596Z,13.74
2018-05-09T01:53:35.080Z,13.84
2018-05-09T01:56:02.542Z,13.72
2018-05-09T01:58:30.031Z,13.68
2018-05-09T02:00:57.506Z,13.69
2018-05-09T02:03:24.972Z,13.57
2018-05-09T02:05:52.461Z,13.60
2018-05-09T02:08:19.932Z,13.52
2018-05-09T02:10:47.399Z,13.53
2018-05-09T02:13:14.900Z,13.53
2018-05-09T02:15:42.367Z,13.52
2018-05-09T02:18:09.857Z,13.43
2018-05-09T02:20:37.332Z,13.39
2018-05-09T02:23:04.811Z,13.31
2018-05-09T02:25:32.309Z,13.32
2018-05-09T02:27:59.779Z,13.33
2018-05-09T02:30:27.270Z,13.32
2018-05-09T02:32:54.741Z,13.42
2018-05-09T02:35:22.219Z,13.27
2018-05-09T02:40:47.556Z,13.13
2018-05-09T02:43:15.061Z,13.10
2018-05-09T02:45:42.531Z,13.15
2018-05-09T02:48:10.027Z,13.07
2018-05-09T02:50:37.496Z,13.09
2018-05-09T02:53:04.984Z,13.00
2018-05-09T02:55:32.458Z,12.94
2018-05-09T02:57:59.923Z,12.91
2018-05-09T03:00:27.413Z,12.83
2018-05-09T03:02:54.894Z,12.73
2018-05-09T03:05:23.804Z,12.84
2018-05-09T03:07:51.272Z,12.64
2018-05-09T03:10:19.295Z,12.75
2018-05-09T03:12:46.781Z,12.69
2018-05-09T03:15:14.256Z,12.66
2018-05-09T03:17:41.740Z,12.62
2018-05-09T03:20:09.223Z,12.66
2018-05-09T03:22:36.692Z,12.63
2018-05-09T03:25:04.183Z,12.66
2018-05-09T03:27:31.644Z,12.63
2018-05-09T03:29:59.151Z,12.69
2018-05-09T03:32:26.622Z,12.62
2018-05-09T03:34:54.088Z,12.57
2018-05-09T03:37:21.595Z,12.55
2018-05-09T03:39:49.047Z,12.58
2018-05-09T03:42:16.551Z,12.71
2018-05-09T03:44:44.025Z,12.76
2018-05-09T03:47:11.493Z,12.74
2018-05-09T03:49:38.979Z,12.78
2018-05-09T03:52:06.443Z,12.68
2018-05-09T03:54:33.940Z,12.71
2018-05-09T03:57:01.412Z,12.74
2018-05-09T03:59:28.888Z,12.71
2018-05-09T04:02:08.023Z,12.84
2018-05-09T04:04:47.121Z,12.95
2018-05-09T04:07:26.261Z,12.87
2018-05-09T04:09:56.595Z,13.05
2018-05-09T04:12:24.091Z,12.97
2018-05-09T04:14:51.612Z,12.92
2018-05-09T04:17:19.371Z,12.89
2018-05-09T04:19:46.847Z,12.97
2018-05-09T04:22:14.320Z,12.91
2018-05-09T04:24:41.803Z,12.80
2018-05-09T04:27:09.280Z,12.94
2018-05-09T04:29:36.776Z,12.98
2018-05-09T04:32:04.243Z,13.16
2018-05-09T04:34:31.715Z,13.39
2018-05-09T04:36:59.200Z,13.23
2018-05-09T04:39:26.676Z,13.68
2018-05-09T04:41:54.262Z,13.51
2018-05-09T04:44:21.666Z,13.44
2018-05-09T04:46:49.140Z,13.58
2018-05-09T04:49:16.663Z,13.71
2018-05-09T04:51:44.128Z,13.73
2018-05-09T04:54:11.883Z,13.98
2018-05-09T04:56:39.359Z,14.04
2018-05-09T04:59:06.824Z,14.12
2018-05-09T05:01:34.427Z,14.19
2018-05-09T05:04:01.892Z,14.33
2018-05-09T05:06:29.381Z,14.28
2018-05-09T05:08:56.862Z,14.40
2018-05-09T05:11:24.345Z,14.56
2018-05-09T05:13:51.819Z,14.61
2018-05-09T05:16:19.748Z,14.49
2018-05-09T05:18:47.245Z,14.63
2018-05-09T05:21:14.720Z,14.45
2018-05-09T05:23:42.207Z,14.53
2018-05-09T05:26:09.673Z,14.98
2018-05-09T05:28:37.188Z,14.89
2018-05-09T05:31:04.662Z,15.17
2018-05-09T05:33:32.156Z,15.27
2018-05-09T05:35:59.654Z,15.37
2018-05-09T05:38:27.124Z,15.53
2018-05-09T05:40:54.599Z,15.60
2018-05-09T05:43:22.089Z,15.93
2018-05-09T05:45:49.573Z,15.75
2018-05-09T05:48:17.058Z,15.75
2018-05-09T05:50:44.532Z,15.87
2018-05-09T05:53:12.000Z,15.94
2018-05-09T05:55:39.488Z,15.85
2018-05-09T05:58:06.959Z,16.12
2018-05-09T06:00:34.445Z,16.07
2018-05-09T06:03:01.909Z,16.25
2018-05-09T06:05:29.404Z,16.19
2018-05-09T06:07:56.917Z,16.23
2018-05-09T06:10:24.353Z,16.26
2018-05-09T06:12:51.831Z,16.34
2018-05-09T06:15:19.299Z,16.42
2018-05-09T06:17:46.780Z,16.51
2018-05-09T06:20:14.244Z,16.65
2018-05-09T06:22:41.728Z,16.52
2018-05-09T06:25:09.197Z,16.72
2018-05-09T06:27:36.664Z,16.72
2018-05-09T06:30:04.138Z,17.19
2018-05-09T06:32:31.601Z,16.86
2018-05-09T06:34:59.118Z,17.28
2018-05-09T06:37:26.596Z,17.41
2018-05-09T06:39:54.056Z,17.38
2018-05-09T06:42:21.534Z,17.68
2018-05-09T06:44:48.997Z,17.48
2018-05-09T06:47:16.484Z,17.71
2018-05-09T06:49:43.947Z,18.04
2018-05-09T06:52:11.404Z,18.27
2018-05-09T06:54:39.047Z,18.25
2018-05-09T06:57:06.500Z,18.38
2018-05-09T06:59:34.059Z,18.33
2018-05-09T07:02:01.519Z,18.49
2018-05-09T07:04:28.984Z,18.64
2018-05-09T07:06:56.459Z,18.99
2018-05-09T07:09:23.912Z,19.15
2018-05-09T07:11:51.401Z,19.32
2018-05-09T07:14:18.880Z,19.11
2018-05-09T07:16:46.345Z,19.16
2018-05-09T07:19:13.837Z,19.55
2018-05-09T07:21:41.305Z,19.45
2018-05-09T07:24:08.768Z,19.56
2018-05-09T07:26:36.233Z,19.67
2018-05-09T07:29:03.687Z,19.70
2018-05-09T07:31:31.158Z,19.69
2018-05-09T07:33:58.623Z,19.91
2018-05-09T07:36:26.110Z,19.89
2018-05-09T07:38:54.298Z,19.87
2018-05-09T07:41:21.779Z,20.14
2018-05-09T07:43:49.239Z,20.19
2018-05-09T07:46:16.699Z,20.13
2018-05-09T07:48:44.202Z,20.24
2018-05-09T07:51:11.669Z,20.16
2018-05-09T07:53:39.179Z,20.43
2018-05-09T07:56:06.683Z,20.42
2018-05-09T07:58:34.116Z,20.44
2018-05-09T08:01:01.594Z,20.51
2018-05-09T08:03:29.056Z,20.50
2018-05-09T08:05:56.547Z,20.91
2018-05-09T08:08:24.007Z,21.13
2018-05-09T08:10:51.468Z,21.15
2018-05-09T08:13:18.957Z,21.12
2018-05-09T08:15:46.416Z,21.19
2018-05-09T08:18:13.891Z,21.40
2018-05-09T08:20:41.615Z,21.30
2018-05-09T08:23:09.313Z,21.26
2018-05-09T08:25:36.791Z,20.64
2018-05-09T08:28:04.264Z,21.19
2018-05-09T08:30:31.740Z,21.23
2018-05-09T08:33:00.165Z,21.51
2018-05-09T08:35:27.631Z,21.68
2018-05-09T08:37:55.116Z,22.03
2018-05-09T08:40:22.576Z,22.27
2018-05-09T08:42:50.059Z,22.03
2018-05-09T08:45:17.522Z,22.53
2018-05-09T08:47:44.972Z,22.91
2018-05-09T08:50:12.455Z,22.69
2018-05-09T08:52:40.116Z,22.61
2018-05-09T08:55:07.583Z,22.80
2018-05-09T08:57:35.040Z,23.02
2018-05-09T09:00:02.518Z,23.08
2018-05-09T09:02:30.020Z,23.42
2018-05-09T09:04:57.492Z,23.11
2018-05-09T09:07:24.957Z,23.26
2018-05-09T09:09:52.425Z,23.17
2018-05-09T09:12:19.903Z,23.26
2018-05-09T09:14:47.355Z,23.36
2018-05-09T09:17:14.847Z,23.46
2018-05-09T09:19:42.305Z,23.76
2018-05-09T09:22:09.762Z,24.19
2018-05-09T09:24:37.247Z,24.28
2018-05-09T09:27:04.700Z,24.27
2018-05-09T09:29:32.631Z,23.89
2018-05-09T09:32:00.102Z,24.19
2018-05-09T09:34:27.571Z,24.41
2018-05-09T09:36:55.047Z,23.93
2018-05-09T09:39:22.516Z,24.18
2018-05-09T09:41:50.339Z,23.62
2018-05-09T09:44:17.797Z,24.20
2018-05-09T09:46:45.263Z,24.37
2018-05-09T09:49:12.728Z,24.27
2018-05-09T09:51:40.201Z,24.28
2018-05-09T09:54:07.683Z,24.25
2018-05-09T09:56:35.144Z,24.76
2018-05-09T09:59:02.600Z,24.78
2018-05-09T10:01:30.076Z,25.10
2018-05-09T10:03:57.545Z,25.31
2018-05-09T10:06:25.026Z,24.95
2018-05-09T10:08:52.476Z,24.66
2018-05-09T10:11:19.949Z,24.51
2018-05-09T10:13:47.408Z,24.56
2018-05-09T10:16:14.891Z,23.88
2018-05-09T10:18:42.349Z,24.35
2018-05-09T10:21:09.808Z,24.75
2018-05-09T10:23:37.278Z,25.00
2018-05-09T10:26:04.737Z,24.99
2018-05-09T10:28:32.194Z,25.35
2018-05-09T10:30:59.685Z,25.28
2018-05-09T10:33:27.147Z,25.12
2018-05-09T10:35:54.651Z,24.85
2018-05-09T10:38:22.103Z,24.69
2018-05-09T10:40:49.560Z,24.23
2018-05-09T10:43:18.008Z,24.40
2018-05-09T10:45:45.472Z,25.66
2018-05-09T10:48:12.959Z,24.99
2018-05-09T10:50:40.517Z,25.38
2018-05-09T10:53:07.893Z,25.36
2018-05-09T10:55:35.364Z,25.26
2018-05-09T10:58:02.820Z,25.54
2018-05-09T11:00:30.662Z,25.39
2018-05-09T11:02:58.111Z,27.28
2018-05-09T11:05:25.572Z,26.98
2018-05-09T11:07:53.052Z,26.59
2018-05-09T11:10:20.513Z,26.48
2018-05-09T11:12:47.992Z,27.47
2018-05-09T11:15:15.455Z,26.93
2018-05-09T11:17:42.912Z,27.54
2018-05-09T11:20:10.395Z,27.79
2018-05-09T11:22:37.856Z,28.01
2018-05-09T11:25:05.336Z,28.30
2018-05-09T11:27:32.800Z,27.14
2018-05-09T11:30:00.263Z,28.18
2018-05-09T11:32:27.751Z,28.71
2018-05-09T11:34:55.213Z,28.66
2018-05-09T11:37:23.571Z,29.96
2018-05-09T11:39:50.941Z,27.65
2018-05-09T11:42:18.464Z,28.03
2018-05-09T11:44:46.021Z,28.37
2018-05-09T11:47:13.463Z,28.47
2018-05-09T11:49:40.932Z,27.18
2018-05-09T11:52:08.384Z,28.41
2018-05-09T11:54:35.867Z,28.49
2018-05-09T11:57:03.324Z,27.78
2018-05-09T11:59:30.792Z,27.85
2018-05-09T12:01:58.254Z,29.76
2018-05-09T12:04:25.705Z,29.35
2018-05-09T12:06:53.187Z,29.86
2018-05-09T12:09:20.646Z,31.82
2018-05-09T12:11:48.132Z,29.52
2018-05-09T12:14:15.588Z,29.95
2018-05-09T12:16:43.070Z,31.15
2018-05-09T12:19:10.541Z,28.99
2018-05-09T12:21:38.005Z,31.92
2018-05-09T12:24:05.482Z,30.54
2018-05-09T12:26:33.248Z,31.05
2018-05-09T12:29:00.707Z,31.01
2018-05-09T12:31:28.194Z,31.93
2018-05-09T12:33:55.650Z,32.39
2018-05-09T12:36:23.177Z,31.13
2018-05-09T12:38:50.595Z,30.17
2018-05-09T12:41:18.063Z,31.59
2018-05-09T12:43:45.540Z,29.85
2018-05-09T12:46:13.000Z,28.73
2018-05-09T12:48:40.505Z,29.53
2018-05-09T12:51:07.940Z,29.16
2018-05-09T12:53:35.432Z,29.58
2018-05-09T12:56:02.927Z,30.02
2018-05-09T12:58:30.382Z,30.30
2018-05-09T13:00:57.851Z,31.77
2018-05-09T13:03:25.313Z,29.17
2018-05-09T13:05:52.796Z,30.24
2018-05-09T13:08:20.260Z,30.44
2018-05-09T13:10:47.723Z,29.93
2018-05-09T13:13:15.269Z,32.11
2018-05-09T13:15:42.667Z,32.20
2018-05-09T13:18:10.148Z,31.73
2018-05-09T13:20:38.192Z,32.07
2018-05-09T13:23:05.642Z,32.12
2018-05-09T13:25:33.111Z,33.23
2018-05-09T13:28:00.572Z,33.07
2018-05-09T13:30:28.043Z,32.91
2018-05-09T13:32:55.939Z,31.86
2018-05-09T13:35:23.404Z,31.60
2018-05-09T13:37:50.884Z,34.19
2018-05-09T13:40:18.340Z,33.08
2018-05-09T13:42:45.826Z,31.40
2018-05-09T13:45:13.287Z,33.61
2018-05-09T13:47:40.745Z,32.67
2018-05-09T13:50:08.235Z,32.58
2018-05-09T13:52:35.715Z,30.55
2018-05-09T13:55:03.191Z,29.68
2018-05-09T13:57:30.660Z,29.78
2018-05-09T13:59:58.456Z,29.69
2018-05-09T14:02:25.911Z,31.64
2018-05-09T14:04:53.376Z,30.42
2018-05-09T14:07:20.858Z,31.64
2018-05-09T14:09:48.418Z,32.19
2018-05-09T14:12:15.818Z,30.90
2018-05-09T14:14:43.271Z,30.50
2018-05-09T14:17:10.754Z,33.02
2018-05-09T14:19:38.221Z,34.12
2018-05-09T14:22:05.675Z,33.91
2018-05-09T14:24:33.156Z,34.98
2018-05-09T14:27:00.820Z,32.07
2018-05-09T14:29:28.307Z,31.28
2018-05-09T14:31:55.766Z,32.78
2018-05-09T14:34:23.220Z,32.92
2018-05-09T14:36:50.708Z,31.54
2018-05-09T14:39:20.116Z,31.49
2018-05-09T14:41:47.599Z,30.73
2018-05-09T14:44:15.049Z,29.93
2018-05-09T14:46:42.588Z,30.61
2018-05-09T14:49:09.996Z,29.46
2018-05-09T14:51:37.458Z,30.33
2018-05-09T14:54:04.933Z,31.04
2018-05-09T14:56:33.318Z,29.57
2018-05-09T14:59:00.777Z,29.02
2018-05-09T15:01:28.249Z,27.57
2018-05-09T15:03:55.716Z,27.47
2018-05-09T15:06:23.204Z,27.86
2018-05-09T15:08:50.667Z,27.65
2018-05-09T15:11:18.127Z,27.53
2018-05-09T15:13:45.599Z,27.42
2018-05-09T15:16:13.067Z,26.71
2018-05-09T15:18:40.533Z,26.13
2018-05-09T15:21:07.988Z,26.84
2018-05-09T15:23:35.453Z,25.84
2018-05-09T15:26:02.926Z,25.83
2018-05-09T15:28:30.387Z,26.04
2018-05-09T15:30:57.881Z,25.94
2018-05-09T15:33:25.359Z,25.98
2018-05-09T15:35:52.818Z,25.87
2018-05-09T15:38:20.294Z,25.84
2018-05-09T15:40:47.754Z,25.80
2018-05-09T15:43:15.228Z,25.53
2018-05-09T15:45:42.695Z,25.35
2018-05-09T15:48:10.150Z,25.23
2018-05-09T15:50:37.830Z,24.39
2018-05-09T15:53:05.295Z,24.18
2018-05-09T15:55:32.744Z,23.56
2018-05-09T15:58:00.213Z,23.14
2018-05-09T16:00:27.700Z,22.81
2018-05-09T16:02:55.184Z,22.24
2018-05-09T16:05:22.647Z,22.00
2018-05-09T16:07:50.105Z,21.92
2018-05-09T16:10:17.575Z,21.76
2018-05-09T16:12:45.026Z,21.91
2018-05-09T16:15:12.501Z,22.07
2018-05-09T16:17:39.960Z,22.13
2018-05-09T16:20:07.438Z,22.07
2018-05-09T16:22:34.935Z,21.78
2018-05-09T16:25:02.389Z,21.93
2018-05-09T16:27:29.865Z,21.94
2018-05-09T16:29:58.014Z,21.93
2018-05-09T16:32:25.532Z,22.05
2018-05-09T16:34:53.691Z,22.06
2018-05-09T16:37:21.161Z,22.04
2018-05-09T16:39:48.639Z,21.09
2018-05-09T16:42:16.140Z,21.22
2018-05-09T16:44:43.620Z,20.84
2018-05-09T16:47:11.189Z,20.98
2018-05-09T16:49:38.676Z,20.04
2018-05-09T16:52:06.159Z,18.71
2018-05-09T16:54:33.628Z,17.86
2018-05-09T16:57:01.128Z,18.33
2018-05-09T16:59:29.715Z,18.29
2018-05-09T17:01:57.745Z,18.42
2018-05-09T17:04:25.247Z,18.47
2018-05-09T17:06:52.712Z,18.13
2018-05-09T17:09:20.576Z,18.76
2018-05-09T17:11:48.044Z,18.92
2018-05-09T17:14:15.559Z,19.23
2018-05-09T17:16:43.471Z,19.24
2018-05-09T17:19:10.995Z,19.00
2018-05-09T17:21:50.356Z,18.75
2018-05-09T17:24:17.929Z,19.24
2018-05-09T17:26:45.399Z,20.05
2018-05-09T17:29:13.797Z,19.12
2018-05-09T17:31:41.591Z,18.77
2018-05-09T17:34:09.343Z,18.37
2018-05-09T17:36:37.530Z,18.18
2018-05-09T17:39:05.046Z,18.08
2018-05-09T17:41:32.512Z,17.95
2018-05-09T17:44:00.929Z,18.04
2018-05-09T17:46:29.274Z,17.90
2018-05-09T17:48:57.443Z,18.00
2018-05-09T17:51:24.913Z,18.00
2018-05-09T17:53:52.972Z,17.85
2018-05-09T17:56:20.787Z,17.94
2018-05-09T17:58:48.519Z,17.80
2018-05-09T18:01:16.653Z,17.45
2018-05-09T18:03:44.179Z,17.44
2018-05-09T18:06:13.113Z,17.35
2018-05-09T18:08:40.577Z,17.28
2018-05-09T18:11:08.041Z,17.11
2018-05-09T18:13:36.072Z,17.33
2018-05-09T18:16:04.044Z,17.21
2018-05-09T18:18:31.542Z,17.44
2018-05-09T18:20:59.104Z,17.19
2018-05-09T18:23:26.571Z,17.27
2018-05-09T18:25:54.044Z,17.20
2018-05-09T18:28:21.616Z,17.18
2018-05-09T18:30:49.110Z,17.22
2018-05-09T18:33:16.573Z,17.26
2018-05-09T18:35:44.047Z,17.26
2018-05-09T18:38:11.528Z,17.20
2018-05-09T18:40:39.001Z,16.92
2018-05-09T18:43:06.483Z,16.95
2018-05-09T18:45:33.947Z,17.06
2018-05-09T18:48:01.449Z,17.12
2018-05-09T18:50:28.919Z,17.26
2018-05-09T18:52:56.589Z,16.98
2018-05-09T18:55:24.075Z,16.71
2018-05-09T18:57:51.536Z,16.57
2018-05-09T19:00:19.319Z,16.56
2018-05-09T19:02:46.783Z,16.65
2018-05-09T19:05:14.261Z,16.72
2018-05-09T19:07:41.755Z,16.45
2018-05-09T19:10:09.222Z,16.64
2018-05-09T19:12:36.752Z,16.56
2018-05-09T19:15:04.225Z,16.55
2018-05-09T19:17:31.703Z,16.63
2018-05-09T19:19:59.178Z,16.63
2018-05-09T19:22:26.640Z,16.69
2018-05-09T19:24:54.123Z,16.74
2018-05-09T19:27:21.710Z,16.67
2018-05-09T19:29:49.210Z,16.64
2018-05-09T19:32:16.702Z,16.60
2018-05-09T19:34:44.180Z,16.56
2018-05-09T19:37:11.836Z,16.53
2018-05-09T19:39:39.305Z,16.46
2018-05-09T19:42:07.047Z,16.57
2018-05-09T19:44:34.555Z,16.70
2018-05-09T19:47:02.314Z,16.47
2018-05-09T19:49:29.787Z,16.39
2018-05-09T19:51:57.353Z,16.45
2018-05-09T19:54:24.851Z,16.34
2018-05-09T19:56:52.305Z,16.41
2018-05-09T19:59:19.874Z,16.48
2018-05-09T20:01:47.379Z,16.33
2018-05-09T20:04:14.851Z,16.44
2018-05-09T20:06:42.342Z,16.48
2018-05-09T20:09:09.815Z,16.53
2018-05-09T20:11:37.300Z,16.59
2018-05-09T20:14:04.759Z,16.57
2018-05-09T20:16:32.233Z,16.61
2018-05-09T20:18:59.713Z,16.53
2018-05-09T20:21:27.172Z,16.60
2018-05-09T20:23:54.664Z,16.45
2018-05-09T20:26:22.173Z,16.49
2018-05-09T20:28:55.539Z,16.41
2018-05-09T20:31:40.381Z,16.53
2018-05-09T20:34:07.873Z,16.51
2018-05-09T20:36:35.340Z,16.54
2018-05-09T20:39:02.808Z,16.59
2018-05-09T20:41:30.636Z,16.63
2018-05-09T20:43:58.024Z,16.68
2018-05-09T20:46:25.511Z,16.62
2018-05-09T20:48:52.989Z,16.59
2018-05-09T20:51:32.213Z,16.46
2018-05-09T20:53:59.684Z,16.56
2018-05-09T20:56:27.492Z,16.63
2018-05-09T20:58:55.022Z,16.78
2018-05-09T21:01:34.099Z,16.93
2018-05-09T21:04:01.582Z,16.84
2018-05-09T21:06:29.044Z,16.79
2018-05-09T21:08:56.507Z,16.87
2018-05-09T21:11:23.988Z,16.94
2018-05-09T21:13:51.450Z,16.93
2018-05-09T21:16:18.943Z,16.75
2018-05-09T21:18:46.409Z,16.94
2018-05-09T21:21:13.866Z,17.03
2018-05-09T21:23:41.344Z,16.98
2018-05-09T21:26:08.823Z,17.11
2018-05-09T21:28:36.307Z,17.15
2018-05-09T21:31:04.081Z,17.30
2018-05-09T21:33:31.569Z,17.26
2018-05-09T21:35:59.051Z,17.29
2018-05-09T21:38:26.512Z,17.29
2018-05-09T21:40:54.036Z,17.23
2018-05-09T21:43:21.479Z,17.14
2018-05-09T21:45:48.976Z,17.04
2018-05-09T21:48:16.440Z,16.92
2018-05-09T21:50:43.933Z,16.81
2018-05-09T21:53:11.396Z,16.82
2018-05-09T21:55:38.868Z,16.73
2018-05-09T21:58:06.361Z,16.63
2018-05-09T22:00:33.830Z,16.69
2018-05-09T22:03:01.319Z,16.91
2018-05-09T22:05:28.781Z,16.90
2018-05-09T22:07:56.263Z,16.79
2018-05-09T22:10:23.759Z,16.83
2018-05-09T22:12:51.219Z,16.73
2018-05-09T22:15:18.701Z,16.78
2018-05-09T22:17:47.051Z,16.73
2018-05-09T22:20:14.535Z,16.63
2018-05-09T22:22:42.008Z,16.66
2018-05-09T22:25:09.480Z,16.57
2018-05-09T22:27:36.985Z,16.58
2018-05-09T22:30:04.455Z,16.66
2018-05-09T22:32:31.948Z,16.62
2018-05-09T22:34:59.421Z,16.60
2018-05-09T22:37:26.896Z,16.83
2018-05-09T22:39:54.383Z,16.62
2018-05-09T22:42:21.853Z,16.57
2018-05-09T22:44:50.036Z,16.59
2018-05-09T22:47:17.505Z,16.30
2018-05-09T22:49:44.981Z,16.34
2018-05-09T22:52:12.565Z,16.40
2018-05-09T22:54:40.031Z,16.41
2018-05-09T22:57:07.532Z,16.41
2018-05-09T22:59:35.004Z,16.48
2018-05-09T23:02:02.479Z,16.45
2018-05-09T23:04:29.972Z,16.33
2018-05-09T23:06:57.438Z,16.28
2018-05-09T23:09:24.940Z,16.39
2018-05-09T23:11:52.407Z,16.43
2018-05-09T23:14:19.880Z,16.25
2018-05-09T23:16:47.368Z,16.22
2018-05-09T23:19:14.885Z,16.16
2018-05-09T23:21:42.346Z,16.10
2018-05-09T23:24:09.813Z,16.12
2018-05-09T23:26:37.281Z,15.85
2018-05-09T23:29:04.760Z,15.73
2018-05-09T23:31:32.255Z,15.87
2018-05-09T23:33:59.751Z,15.88
2018-05-09T23:36:27.217Z,15.65
2018-05-09T23:38:54.680Z,15.63
2018-05-09T23:41:22.160Z,15.49
2018-05-09T23:43:49.634Z,15.37
2018-05-09T23:46:17.514Z,15.25
2018-05-09T23:48:44.988Z,15.33
2018-05-09T23:51:12.468Z,15.34
2018-05-09T23:53:39.960Z,15.27
2018-05-09T23:56:07.642Z,15.24
2018-05-09T23:58:35.132Z,15.06
